Time;durP1;ratioP1;P1;durP2;ratioP2;P2;SDS_P1;SDS_P2;PMS_P1;PMS_P2;Temp;Humidity;BMP_temperature;BMP_pressure;BME280_temperature;BME280_humidity;BME280_pressure;Samples;Min_cycle;Max_cycle;Signal;HPM_P1;HPM_P2
2022/12/10 00:02:20;;;;;;;;;;;;;;;15.21;64.24;94595.25;5116484;28;1061;-67
2022/12/10 00:04:46;;;;;;;;;;;;;;;15.19;64.07;94603.53;5116460;28;1043;-66
2022/12/10 00:07:12;;;;;;;;;;;;;;;15.21;64.33;94601.50;5116361;28;1032;-67
2022/12/10 00:09:38;;;;;;;;;;;;;;;15.20;64.26;94601.69;5098265;28;1112;-66
2022/12/10 00:12:05;;;;;;;;;;;;;;;15.22;64.15;94595.06;5116337;28;1105;-66
2022/12/10 00:14:31;;;;;;;;;;;;;;;15.25;64.14;94585.72;5116387;28;1052;-67
2022/12/10 00:16:57;;;;;;;;;;;;;;;15.27;64.01;94586.38;5116325;28;1048;-66
2022/12/10 00:19:23;;;;;;;;;;;;;;;15.28;63.82;94587.22;5116179;28;1918;-67
2022/12/10 00:21:49;;;;;;;;;;;;;;;15.31;63.90;94590.34;5115988;28;1200;-67
2022/12/10 00:24:15;;;;;;;;;;;;;;;15.28;63.95;94590.72;5116102;28;1113;-67
2022/12/10 00:26:41;;;;;;;;;;;;;;;15.30;63.68;94593.22;5115967;28;1065;-67
2022/12/10 00:29:10;;;;;;;;;;;;;;;15.29;63.81;94603.16;5115957;28;1050;-67
2022/12/10 00:31:36;;;;;;;;;;;;;;;15.30;63.91;94595.91;5115878;28;1048;-67
2022/12/10 00:34:04;;;;;;;;;;;;;;;15.32;63.80;94596.53;5115852;28;1060;-67
2022/12/10 00:36:33;;;;;;;;;;;;;;;15.34;63.74;94605.25;5115543;28;1380;-67
2022/12/10 00:38:59;;;;;;;;;;;;;;;15.32;63.65;94608.13;5115742;28;1141;-67
2022/12/10 00:41:25;;;;;;;;;;;;;;;15.27;64.13;94610.63;5115731;28;1984;-67
2022/12/10 00:43:51;;;;;;;;;;;;;;;15.22;63.96;94599.63;5115685;28;1053;-66
2022/12/10 00:46:18;;;;;;;;;;;;;;;15.24;64.05;94592.16;5115618;28;1034;-67
2022/12/10 00:48:45;;;;;;;;;;;;;;;15.21;64.03;94601.50;5097484;28;1108;-66
2022/12/10 00:51:15;;;;;;;;;;;;;;;15.20;64.22;94605.22;5115466;28;1036;-67
2022/12/10 00:53:42;;;;;;;;;;;;;;;15.21;64.15;94611.41;5115720;28;1048;-67
2022/12/10 00:56:09;;;;;;;;;;;;;;;15.23;64.10;94607.50;5115448;28;1042;-66
2022/12/10 00:58:35;;;;;;;;;;;;;;;15.23;64.28;94603.97;5115448;28;989;-67
2022/12/10 01:01:13;;;;;;;;;;;;;;;15.27;64.22;94590.91;5115366;28;1985;-67
2022/12/10 01:03:39;;;;;;;;;;;;;;;15.25;64.51;94580.34;5115192;28;1013;-67
2022/12/10 01:06:10;;;;;;;;;;;;;;;15.31;64.33;94582.25;5115468;28;1198;-67
2022/12/10 01:08:36;;;;;;;;;;;;;;;15.30;64.43;94580.56;5115331;28;1006;-67
2022/12/10 01:11:02;;;;;;;;;;;;;;;15.26;64.50;94576.63;5115463;28;1004;-67
2022/12/10 01:13:28;;;;;;;;;;;;;;;15.33;64.46;94576.66;5115148;28;1048;-67
2022/12/10 01:15:55;;;;;;;;;;;;;;;15.33;64.63;94574.78;5115038;28;1069;-67
2022/12/10 01:18:21;;;;;;;;;;;;;;;15.29;64.74;94572.69;5114965;28;1250;-67
2022/12/10 01:20:47;;;;;;;;;;;;;;;15.30;64.59;94572.50;5115028;28;1898;-66
2022/12/10 01:23:13;;;;;;;;;;;;;;;15.31;64.62;94576.00;5097022;28;1010;-67
2022/12/10 01:25:39;;;;;;;;;;;;;;;15.31;64.77;94566.09;5114945;28;970;-66
2022/12/10 01:28:05;;;;;;;;;;;;;;;15.31;64.82;94571.47;5114788;28;1259;-66
2022/12/10 01:30:32;;;;;;;;;;;;;;;15.23;64.97;94556.34;5114783;28;1275;-66
2022/12/10 01:32:58;;;;;;;;;;;;;;;15.27;65.14;94556.75;5114719;28;1015;-67
2022/12/10 01:35:24;;;;;;;;;;;;;;;15.23;64.84;94552.78;5096928;28;1270;-67
2022/12/10 01:37:50;;;;;;;;;;;;;;;15.19;65.06;94557.75;5096491;28;1245;-67
2022/12/10 01:40:16;;;;;;;;;;;;;;;15.14;65.71;94562.94;5114576;28;2028;-67
2022/12/10 01:42:42;;;;;;;;;;;;;;;15.14;65.64;94562.09;5114579;28;1239;-66
2022/12/10 01:45:10;;;;;;;;;;;;;;;15.16;65.61;94571.66;5114626;28;1122;-66
2022/12/10 01:47:36;;;;;;;;;;;;;;;15.10;65.75;94567.09;5114429;28;1032;-66
2022/12/10 01:50:03;;;;;;;;;;;;;;;15.14;65.82;94568.34;5114654;28;1036;-67
2022/12/10 01:52:29;;;;;;;;;;;;;;;15.15;65.81;94572.66;5114467;28;1048;-67
2022/12/10 01:54:55;;;;;;;;;;;;;;;15.16;65.55;94565.44;5114537;28;1009;-67
2022/12/10 01:57:23;;;;;;;;;;;;;;;15.15;65.85;94569.16;5114440;28;1032;-66
2022/12/10 01:59:54;;;;;;;;;;;;;;;15.21;65.75;94566.50;5114170;28;1980;-67
2022/12/10 02:02:20;;;;;;;;;;;;;;;15.21;65.62;94566.50;5113820;28;1033;-67
2022/12/10 02:05:05;;;;;;;;;;;;;;;15.23;65.96;94574.34;5115508;27;1037;-67
2022/12/10 02:07:50;;;;;;;;;;;;;;;15.22;66.23;94570.00;5134733;27;973;-66
2022/12/10 02:10:22;;;;;;;;;;;;;;;15.07;66.69;94564.78;5134637;27;1148;-67
2022/12/10 02:13:00;;;;;;;;;;;;;;;15.16;66.33;94560.06;5134482;27;1051;-66
2022/12/10 02:15:32;;;;;;;;;;;;;;;15.18;66.04;94549.91;5134608;27;1105;-66
2022/12/10 02:18:28;;;;;;;;;;;;;;;15.06;66.89;94535.38;5134472;27;1116;-67
2022/12/10 02:21:02;;;;;;;;;;;;;;;15.13;66.72;94541.59;5112911;27;1913;-67
2022/12/10 02:23:32;;;;;;;;;;;;;;;15.13;66.43;94537.03;5134600;27;1158;-67
2022/12/10 02:26:10;;;;;;;;;;;;;;;15.13;66.51;94537.03;5116235;27;1073;-66
2022/12/10 02:28:54;;;;;;;;;;;;;;;15.14;66.47;94533.34;5134446;27;1047;-66
2022/12/10 02:31:26;;;;;;;;;;;;;;;15.09;66.70;94533.09;5116167;28;1120;-67
2022/12/10 02:33:54;;;;;;;;;;;;;;;15.06;66.98;94529.97;5134361;28;1053;-67
2022/12/10 02:36:22;;;;;;;;;;;;;;;15.03;67.54;94525.84;5134342;27;1228;-67
2022/12/10 02:38:49;;;;;;;;;;;;;;;14.99;67.70;94533.50;5129116;28;1216;-66
2022/12/10 02:41:22;;;;;;;;;;;;;;;14.98;67.83;94529.13;5113732;28;1902;-67
2022/12/10 02:43:51;;;;;;;;;;;;;;;15.00;67.69;94512.78;5113584;28;1128;-66
2022/12/10 02:46:18;;;;;;;;;;;;;;;14.96;68.39;94508.84;5113633;28;1060;-65
2022/12/10 02:48:46;;;;;;;;;;;;;;;14.91;68.87;94522.06;5113626;28;1107;-67
2022/12/10 02:51:12;;;;;;;;;;;;;;;14.89;69.19;94516.94;5095787;28;1049;-67
2022/12/10 02:53:42;;;;;;;;;;;;;;;14.89;68.90;94516.06;5095463;28;1046;-66
2022/12/10 02:56:08;;;;;;;;;;;;;;;14.86;69.54;94522.69;5113697;28;1006;-67
2022/12/10 02:58:37;;;;;;;;;;;;;;;14.88;69.88;94525.19;5113487;28;1001;-67
2022/12/10 03:01:12;;;;;;;;;;;;;;;14.84;70.02;94524.78;5113655;28;1985;-67
2022/12/10 03:03:48;;;;;;;;;;;;;;;14.79;69.99;94519.16;5113658;28;1016;-67
2022/12/10 03:06:21;;;;;;;;;;;;;;;14.75;70.18;94515.22;5113540;28;1046;-66
2022/12/10 03:08:59;;;;;;;;;;;;;;;14.72;70.31;94516.47;5113496;28;992;-67
2022/12/10 03:11:25;;;;;;;;;;;;;;;14.71;70.42;94524.72;5113743;28;977;-66
2022/12/10 03:13:55;;;;;;;;;;;;;;;14.69;70.74;94524.91;5113620;28;1029;-67
2022/12/10 03:16:23;;;;;;;;;;;;;;;14.68;70.95;94525.94;5116760;28;1121;-66
2022/12/10 03:18:52;;;;;;;;;;;;;;;14.66;71.08;94519.94;5117271;28;1107;-68
2022/12/10 03:21:18;;;;;;;;;;;;;;;14.65;71.13;94515.59;5117298;28;1997;-68
2022/12/10 03:23:46;;;;;;;;;;;;;;;14.63;71.25;94498.84;5117175;28;1030;-66
2022/12/10 03:26:12;;;;;;;;;;;;;;;14.64;71.07;94505.84;5117198;28;1069;-68
2022/12/10 03:28:41;;;;;;;;;;;;;;;14.63;71.24;94501.53;5117331;28;1020;-68
2022/12/10 03:31:10;;;;;;;;;;;;;;;14.67;71.16;94499.25;5117327;28;1055;-68
2022/12/10 03:33:36;;;;;;;;;;;;;;;14.69;71.33;94505.25;5117017;28;1522;-68
2022/12/10 03:36:02;;;;;;;;;;;;;;;14.69;71.17;94522.22;5116878;28;1203;-69
2022/12/10 03:38:29;;;;;;;;;;;;;;;14.67;71.24;94523.47;5116823;28;1309;-68
2022/12/10 03:40:55;;;;;;;;;;;;;;;14.63;71.55;94520.34;5116896;28;1983;-68
2022/12/10 03:43:21;;;;;;;;;;;;;;;14.67;71.36;94523.47;5117083;28;1036;-68
2022/12/10 03:45:47;;;;;;;;;;;;;;;14.68;71.41;94523.25;5116755;28;1053;-69
2022/12/10 03:48:13;;;;;;;;;;;;;;;14.67;71.59;94518.09;5116910;28;1061;-68
2022/12/10 03:50:39;;;;;;;;;;;;;;;14.63;71.85;94513.09;5116776;28;1037;-68
2022/12/10 03:53:05;;;;;;;;;;;;;;;14.61;72.11;94525.09;5116672;28;1103;-68
2022/12/10 03:55:32;;;;;;;;;;;;;;;14.57;72.53;94508.53;5116858;28;1055;-65
2022/12/10 03:57:58;;;;;;;;;;;;;;;14.58;72.60;94504.81;5116604;28;1041;-68
2022/12/10 04:00:24;;;;;;;;;;;;;;;14.59;72.93;94508.34;5098565;28;1907;-68
2022/12/10 04:02:50;;;;;;;;;;;;;;;14.59;72.98;94511.84;5098545;28;981;-68
2022/12/10 04:05:17;;;;;;;;;;;;;;;14.55;73.31;94513.25;5098346;28;1033;-68
2022/12/10 04:07:43;;;;;;;;;;;;;;;14.54;73.39;94516.97;5116279;28;1009;-67
2022/12/10 04:10:09;;;;;;;;;;;;;;;14.55;73.61;94515.09;5116374;28;1054;-68
2022/12/10 04:12:35;;;;;;;;;;;;;;;14.58;73.59;94522.81;5116417;28;981;-68
2022/12/10 04:17:45;;;;;;;;;;;;;;;14.61;73.64;94515.16;5116234;28;1042;-68
2022/12/10 04:28:26;;;;;;;;;;;;;;;14.52;74.33;94515.53;5116016;28;1013;-68
2022/12/10 04:30:52;;;;;;;;;;;;;;;14.48;74.62;94507.03;5115906;28;1104;-69
2022/12/10 04:33:18;;;;;;;;;;;;;;;14.44;74.41;94498.53;5116190;28;993;-67
2022/12/10 04:35:44;;;;;;;;;;;;;;;14.43;74.78;94506.78;5115763;28;1268;-67
2022/12/10 04:38:10;;;;;;;;;;;;;;;14.47;74.69;94501.84;5115718;28;1115;-67
2022/12/10 04:40:36;;;;;;;;;;;;;;;14.45;74.69;94510.09;5115637;28;1995;-68
2022/12/10 04:43:02;;;;;;;;;;;;;;;14.49;74.37;94495.22;5119962;27;1219;-67
2022/12/10 04:45:28;;;;;;;;;;;;;;;14.47;74.27;94486.53;5136146;27;1519;-65
2022/12/10 04:47:54;;;;;;;;;;;;;;;14.43;74.37;94488.78;5136349;27;1197;-66
2022/12/10 04:50:20;;;;;;;;;;;;;;;14.44;74.16;94482.38;5117750;27;1607;-66
2022/12/10 04:52:46;;;;;;;;;;;;;;;14.47;74.08;94483.84;5136199;27;1087;-66
2022/12/10 04:55:12;;;;;;;;;;;;;;;14.43;74.21;94480.72;5136151;27;1005;-66
2022/12/10 04:57:38;;;;;;;;;;;;;;;14.40;74.22;94486.50;5135969;27;1024;-66
2022/12/10 05:00:04;;;;;;;;;;;;;;;14.40;74.03;94491.88;5135844;27;1925;-66
2022/12/10 05:02:30;;;;;;;;;;;;;;;14.43;74.00;94506.78;5136034;27;1052;-66
2022/12/10 05:04:56;;;;;;;;;;;;;;;14.47;73.65;94517.97;5117891;27;981;-67
2022/12/10 05:07:22;;;;;;;;;;;;;;;14.46;73.72;94522.53;5135950;27;1064;-66
2022/12/10 05:09:48;;;;;;;;;;;;;;;14.45;73.67;94528.94;5135672;27;1097;-66
2022/12/10 05:12:14;;;;;;;;;;;;;;;14.48;73.47;94517.78;5135692;27;1053;-67
2022/12/10 05:14:41;;;;;;;;;;;;;;;14.49;73.30;94511.34;5117457;27;1009;-66
2022/12/10 05:17:07;;;;;;;;;;;;;;;14.53;73.12;94517.16;5100716;27;1444;-66
2022/12/10 05:19:33;;;;;;;;;;;;;;;14.52;73.05;94513.66;5135770;27;1901;-66
2022/12/10 05:24:44;;;;;;;;;;;;;;;14.55;72.97;94512.41;5135467;27;984;-66
2022/12/10 05:27:10;;;;;;;;;;;;;;;14.56;72.78;94498.75;5135350;27;1053;-66
2022/12/10 05:29:36;;;;;;;;;;;;;;;14.63;72.70;94501.53;5135522;27;968;-67
2022/12/10 05:32:04;;;;;;;;;;;;;;;14.63;72.47;94494.28;5135344;27;1044;-67
2022/12/10 05:34:30;;;;;;;;;;;;;;;14.55;73.13;94502.50;5135397;27;1000;-66
2022/12/10 05:36:56;;;;;;;;;;;;;;;14.54;73.17;94514.28;5134851;27;1367;-66
2022/12/10 05:39:22;;;;;;;;;;;;;;;14.53;73.33;94511.78;5124856;27;1149;-66
2022/12/10 05:41:48;;;;;;;;;;;;;;;14.54;73.25;94508.06;5114360;28;1926;-66
2022/12/10 05:44:14;;;;;;;;;;;;;;;14.53;73.61;94495.66;5096589;28;1123;-66
2022/12/10 05:46:40;;;;;;;;;;;;;;;14.48;73.57;94488.19;5096363;28;1101;-66
2022/12/10 05:49:07;;;;;;;;;;;;;;;14.42;73.65;94500.59;5111604;28;1273;-67
2022/12/10 05:51:34;;;;;;;;;;;;;;;14.39;74.09;94505.53;5113783;28;1093;-67
2022/12/10 05:54:01;;;;;;;;;;;;;;;14.33;74.23;94496.41;5114363;28;1128;-67
2022/12/10 05:56:27;;;;;;;;;;;;;;;14.31;74.43;94508.41;5114146;28;997;-67
2022/12/10 05:58:55;;;;;;;;;;;;;;;14.29;74.74;94507.78;5114274;28;1045;-67
2022/12/10 06:01:23;;;;;;;;;;;;;;;14.29;74.66;94505.09;5113930;28;1918;-66
2022/12/10 06:03:52;;;;;;;;;;;;;;;14.28;74.75;94508.78;5114147;28;1101;-67
2022/12/10 06:06:22;;;;;;;;;;;;;;;14.27;74.77;94516.03;5114185;28;1052;-67
2022/12/10 06:08:48;;;;;;;;;;;;;;;14.26;74.88;94508.97;5096129;28;1024;-67
2022/12/10 06:11:15;;;;;;;;;;;;;;;14.28;74.79;94500.72;5113776;28;1252;-68
2022/12/10 06:13:41;;;;;;;;;;;;;;;14.33;74.60;94500.97;5096146;28;1068;-67
2022/12/10 06:16:08;;;;;;;;;;;;;;;14.37;74.32;94507.59;5096147;28;1284;-65
2022/12/10 06:18:35;;;;;;;;;;;;;;;14.44;73.90;94508.47;5114058;28;1013;-67
2022/12/10 06:21:08;;;;;;;;;;;;;;;14.44;73.76;94519.22;5095647;28;1997;-69
2022/12/10 06:23:35;;;;;;;;;;;;;;;14.48;73.69;94520.47;5113896;28;1204;-68
2022/12/10 06:26:05;;;;;;;;;;;;;;;14.46;73.72;94519.84;5114133;28;977;-69
2022/12/10 06:28:31;;;;;;;;;;;;;;;14.44;73.76;94521.91;5113838;28;1058;-60
2022/12/10 06:30:58;;;;;;;;;;;;;;;14.42;73.74;94522.09;5113524;28;1278;-68
2022/12/10 06:33:24;;;;;;;;;;;;;;;14.44;73.66;94513.84;5113851;28;1121;-68
2022/12/10 06:35:50;;;;;;;;;;;;;;;14.47;73.56;94516.09;5095826;28;1025;-68
2022/12/10 06:38:16;;;;;;;;;;;;;;;14.46;73.38;94514.47;5113390;28;1298;-68
2022/12/10 06:40:42;;;;;;;;;;;;;;;14.48;73.46;94519.66;5113483;28;1909;-68
2022/12/10 06:43:08;;;;;;;;;;;;;;;14.47;73.32;94516.09;5113789;28;962;-69
2022/12/10 06:45:38;;;;;;;;;;;;;;;14.47;73.40;94510.72;5113744;28;1028;-68
2022/12/10 06:48:05;;;;;;;;;;;;;;;14.45;73.21;94504.72;5113877;28;1008;-68
2022/12/10 06:50:31;;;;;;;;;;;;;;;14.45;73.37;94516.31;5117136;28;1134;-68
2022/12/10 06:52:57;;;;;;;;;;;;;;;14.44;73.46;94513.84;5117808;28;1177;-67
2022/12/10 06:55:23;;;;;;;;;;;;;;;14.55;73.26;94509.72;5117721;28;1053;-68
2022/12/10 06:57:52;;;;;;;;;;;;;;;14.55;73.12;94512.41;5117783;28;1075;-68
2022/12/10 07:00:19;;;;;;;;;;;;;;;14.50;73.32;94504.97;5117591;28;1909;-68
2022/12/10 07:02:45;;;;;;;;;;;;;;;14.52;73.28;94497.50;5117409;28;1139;-68
2022/12/10 07:05:11;;;;;;;;;;;;;;;14.48;73.33;94496.25;5117589;28;1104;-68
2022/12/10 07:07:38;;;;;;;;;;;;;;;14.45;73.77;94515.47;5117399;28;1111;-68
2022/12/10 07:10:04;;;;;;;;;;;;;;;14.45;73.69;94510.94;5117500;28;1037;-68
2022/12/10 07:12:30;;;;;;;;;;;;;;;14.47;73.55;94526.88;5117395;28;1030;-68
2022/12/10 07:14:56;;;;;;;;;;;;;;;14.48;73.56;94531.22;5117357;28;1073;-66
2022/12/10 07:17:22;;;;;;;;;;;;;;;14.50;73.59;94539.91;5099421;28;965;-68
2022/12/10 07:19:48;;;;;;;;;;;;;;;14.50;73.54;94536.41;5117233;28;1901;-67
2022/12/10 07:22:15;;;;;;;;;;;;;;;14.54;73.47;94546.56;5099038;28;1119;-67
2022/12/10 07:24:41;;;;;;;;;;;;;;;14.63;73.02;94539.19;5117244;28;1038;-67
2022/12/10 07:27:07;;;;;;;;;;;;;;;14.69;72.82;94526.78;5099269;28;1034;-67
2022/12/10 07:29:34;;;;;;;;;;;;;;;14.68;72.49;94519.75;5117173;28;1040;-67
2022/12/10 07:32:00;;;;;;;;;;;;;;;14.71;72.55;94530.94;5116885;28;1144;-67
2022/12/10 07:34:26;;;;;;;;;;;;;;;14.73;72.28;94525.34;5117030;28;982;-68
2022/12/10 07:36:52;;;;;;;;;;;;;;;14.73;72.05;94528.03;5116892;28;1105;-68
2022/12/10 07:39:18;;;;;;;;;;;;;;;14.80;72.02;94532.41;5117220;28;1165;-68
2022/12/10 07:41:47;;;;;;;;;;;;;;;14.80;72.15;94537.78;5116536;28;1980;-68
2022/12/10 07:44:13;;;;;;;;;;;;;;;14.84;71.83;94535.53;5117108;28;1044;-68
2022/12/10 07:46:39;;;;;;;;;;;;;;;14.78;71.78;94529.09;5116914;28;1048;-68
2022/12/10 07:49:05;;;;;;;;;;;;;;;14.84;71.75;94540.91;5116748;28;1192;-67
2022/12/10 07:51:31;;;;;;;;;;;;;;;14.79;72.03;94538.00;5116415;28;1179;-67
2022/12/10 07:53:57;;;;;;;;;;;;;;;14.81;71.79;94535.91;5116983;28;1043;-67
2022/12/10 07:56:24;;;;;;;;;;;;;;;14.84;71.83;94536.34;5116851;28;969;-67
2022/12/10 07:58:51;;;;;;;;;;;;;;;14.90;71.46;94533.91;5116796;28;985;-67
2022/12/10 08:01:19;;;;;;;;;;;;;;;14.90;71.51;94531.19;5115552;28;1905;-68
2022/12/10 08:03:45;;;;;;;;;;;;;;;14.91;71.33;94536.38;5116426;28;1088;-68
2022/12/10 08:06:13;;;;;;;;;;;;;;;14.94;71.22;94532.44;5116755;28;1036;-68
2022/12/10 08:08:39;;;;;;;;;;;;;;;14.97;71.01;94521.28;5116589;28;1049;-68
2022/12/10 08:11:06;;;;;;;;;;;;;;;14.97;71.23;94522.09;5098244;28;1572;-67
2022/12/10 08:13:32;;;;;;;;;;;;;;;15.03;70.83;94507.00;5116253;28;1128;-67
2022/12/10 08:16:18;;;;;;;;;;;;;;;15.09;70.83;94510.75;5116411;28;1076;-67
2022/12/10 08:18:45;;;;;;;;;;;;;;;15.14;70.72;94524.41;5116111;28;1116;-68
2022/12/10 08:21:12;;;;;;;;;;;;;;;15.18;70.22;94531.06;5115597;28;1913;-67
2022/12/10 08:23:39;;;;;;;;;;;;;;;15.20;70.27;94540.59;5115878;28;1226;-67
2022/12/10 08:26:06;;;;;;;;;;;;;;;15.18;69.80;94537.25;5116211;28;1021;-67
2022/12/10 08:28:33;;;;;;;;;;;;;;;15.21;69.64;94528.78;5116035;28;1057;-68
2022/12/10 08:30:59;;;;;;;;;;;;;;;15.31;69.20;94520.31;5116005;28;1036;-66
2022/12/10 08:33:25;;;;;;;;;;;;;;;15.42;68.83;94526.94;5115937;28;1095;-68
2022/12/10 08:35:51;;;;;;;;;;;;;;;15.42;68.84;94517.00;5115853;28;1030;-67
2022/12/10 08:38:17;;;;;;;;;;;;;;;15.46;68.64;94505.78;5115700;28;1213;-68
2022/12/10 08:40:43;;;;;;;;;;;;;;;15.51;68.73;94497.94;5115648;28;1901;-67
2022/12/10 08:43:09;;;;;;;;;;;;;;;15.54;68.31;94505.59;5115621;28;1132;-67
2022/12/10 08:45:35;;;;;;;;;;;;;;;15.58;68.24;94498.75;5115631;28;1033;-67
2022/12/10 08:48:02;;;;;;;;;;;;;;;15.71;67.35;94492.53;5115659;28;1097;-67
2022/12/10 08:50:28;;;;;;;;;;;;;;;15.81;67.29;94499.19;5115781;28;1021;-67
2022/12/10 08:52:54;;;;;;;;;;;;;;;15.89;66.96;94494.63;5115321;28;1049;-67
2022/12/10 08:55:20;;;;;;;;;;;;;;;15.89;66.85;94494.63;5115718;28;1032;-68
2022/12/10 08:57:46;;;;;;;;;;;;;;;15.88;66.83;94491.09;5115455;28;996;-65
2022/12/10 09:00:13;;;;;;;;;;;;;;;15.92;66.76;94464.53;5115451;28;1905;-65
2022/12/10 09:02:39;;;;;;;;;;;;;;;15.98;66.50;94471.78;5115066;28;1028;-65
2022/12/10 09:05:06;;;;;;;;;;;;;;;16.04;66.50;94448.53;5115303;28;1112;-67
2022/12/10 09:07:32;;;;;;;;;;;;;;;16.09;66.09;94457.66;5115192;28;910;-66
2022/12/10 09:09:58;;;;;;;;;;;;;;;16.16;65.48;94436.91;5115185;28;1112;-67
2022/12/10 09:12:24;;;;;;;;;;;;;;;16.23;64.95;94425.25;5113943;28;1088;-66
2022/12/10 09:14:50;;;;;;;;;;;;;;;16.34;65.15;94411.91;5115146;28;1030;-67
2022/12/10 09:17:16;;;;;;;;;;;;;;;16.39;64.33;94411.28;5115331;28;1061;-67
2022/12/10 09:19:42;;;;;;;;;;;;;;;16.47;64.23;94405.63;5114803;28;1902;-67
2022/12/10 09:22:08;;;;;;;;;;;;;;;16.55;63.98;94413.47;5114895;28;1142;-68
2022/12/10 09:24:34;;;;;;;;;;;;;;;16.62;63.64;94396.41;5114973;28;965;-68
2022/12/10 09:27:02;;;;;;;;;;;;;;;16.83;63.01;94395.25;5097037;28;1060;-67
2022/12/10 09:29:28;;;;;;;;;;;;;;;16.88;62.93;94404.34;5114830;28;1024;-67
2022/12/10 09:31:54;;;;;;;;;;;;;;;16.96;62.23;94404.09;5114557;28;1160;-67
2022/12/10 09:34:21;;;;;;;;;;;;;;;16.89;62.03;94402.50;5114968;28;977;-68
2022/12/10 09:36:47;;;;;;;;;;;;;;;16.95;62.65;94409.72;5114628;28;1100;-67
2022/12/10 09:39:13;;;;;;;;;;;;;;;16.97;62.15;94405.75;5114741;28;1157;-68
2022/12/10 09:41:45;;;;;;;;;;;;;;;16.86;61.54;94403.75;5114558;28;1906;-68
2022/12/10 09:44:30;;;;;;;;;;;;;;;16.79;62.27;94402.97;5114232;28;1161;-68
2022/12/10 09:46:57;;;;;;;;;;;;;;;16.91;62.36;94395.81;5114673;28;1033;-67
2022/12/10 09:49:42;;;;;;;;;;;;;;;16.89;61.83;94389.81;5114662;28;1028;-67
2022/12/10 09:52:13;;;;;;;;;;;;;;;16.88;61.82;94388.16;5114262;28;1035;-67
2022/12/10 09:54:42;;;;;;;;;;;;;;;16.95;61.65;94385.41;5114095;28;1330;-67
2022/12/10 09:57:21;;;;;;;;;;;;;;;16.98;61.54;94374.19;5114558;28;978;-68
2022/12/10 09:59:49;;;;;;;;;;;;;;;17.00;61.58;94382.03;5096330;28;1910;-67
2022/12/10 10:02:18;;;;;;;;;;;;;;;17.01;62.26;94378.31;5111145;28;1237;-67
2022/12/10 10:04:44;;;;;;;;;;;;;;;16.97;61.15;94377.91;5114244;28;1024;-67
2022/12/10 10:07:16;;;;;;;;;;;;;;;16.98;61.86;94364.22;5114204;28;1016;-68
2022/12/10 10:09:43;;;;;;;;;;;;;;;17.04;61.36;94359.81;5113613;28;1176;-70
2022/12/10 10:12:14;;;;;;;;;;;;;;;16.94;61.01;94349.50;5114042;28;1270;-68
2022/12/10 10:14:41;;;;;;;;;;;;;;;16.89;60.74;94348.50;5114016;28;1579;-66
2022/12/10 10:17:11;;;;;;;;;;;;;;;16.92;60.97;94327.28;5113674;28;961;-68
2022/12/10 10:19:40;;;;;;;;;;;;;;;16.93;60.51;94344.31;5113351;28;973;-66
2022/12/10 10:22:09;;;;;;;;;;;;;;;16.95;60.14;94326.03;5113185;28;1037;-67
2022/12/10 10:24:36;;;;;;;;;;;;;;;17.06;61.05;94335.28;5113652;28;950;-68
2022/12/10 10:27:11;;;;;;;;;;;;;;;17.07;59.57;94328.81;5113447;28;1008;-68
2022/12/10 10:29:38;;;;;;;;;;;;;;;17.01;59.94;94330.53;5113819;28;1037;-67
2022/12/10 10:32:17;;;;;;;;;;;;;;;17.06;59.57;94325.28;5113902;28;958;-66
2022/12/10 10:34:45;;;;;;;;;;;;;;;17.02;59.71;94320.56;5114003;28;1036;-68
2022/12/10 10:37:28;;;;;;;;;;;;;;;17.02;60.01;94320.56;5113627;28;1303;-69
2022/12/10 10:39:54;;;;;;;;;;;;;;;16.88;59.93;94319.84;5113837;28;2001;-68
2022/12/10 10:42:27;;;;;;;;;;;;;;;16.94;60.71;94316.25;5113845;28;1249;-68
2022/12/10 10:44:53;;;;;;;;;;;;;;;17.06;60.25;94311.78;5113668;28;1093;-68
2022/12/10 10:47:25;;;;;;;;;;;;;;;17.09;59.90;94305.97;5113954;28;1001;-69
2022/12/10 10:49:51;;;;;;;;;;;;;;;17.14;60.10;94305.28;5113935;28;1008;-69
2022/12/10 10:52:17;;;;;;;;;;;;;;;17.17;60.49;94302.16;5095737;28;1063;-69
2022/12/10 10:54:44;;;;;;;;;;;;;;;17.20;59.96;94312.50;5113506;28;1101;-70
2022/12/10 10:57:12;;;;;;;;;;;;;;;17.04;59.82;94303.09;5113614;28;1305;-70
2022/12/10 10:59:38;;;;;;;;;;;;;;;17.05;60.36;94285.81;5113580;28;1005;-70
2022/12/10 11:02:08;;;;;;;;;;;;;;;17.05;60.34;94287.72;5113587;28;1163;-70
2022/12/10 11:04:43;;;;;;;;;;;;;;;16.97;60.64;94270.75;5113506;28;1049;-69
2022/12/10 11:07:16;;;;;;;;;;;;;;;16.96;60.88;94274.50;5113715;28;1040;-69
2022/12/10 11:09:44;;;;;;;;;;;;;;;16.96;60.31;94261.00;5113587;28;930;-70
2022/12/10 11:12:40;;;;;;;;;;;;;;;17.00;60.26;94257.84;5113766;28;1039;-69
2022/12/10 11:15:24;;;;;;;;;;;;;;;16.93;60.61;94261.44;5092265;28;1539;-68
2022/12/10 11:17:51;;;;;;;;;;;;;;;16.83;61.20;94262.97;5113462;28;1301;-69
2022/12/10 11:20:19;;;;;;;;;;;;;;;16.81;61.28;94255.09;5113405;28;1910;-69
2022/12/10 11:22:53;;;;;;;;;;;;;;;16.85;61.35;94248.22;5113303;28;1052;-69
2022/12/10 11:25:26;;;;;;;;;;;;;;;16.79;61.31;94238.28;5113355;28;1138;-71
2022/12/10 11:28:00;;;;;;;;;;;;;;;16.75;61.53;94228.97;5113352;28;1037;-71
2022/12/10 11:30:30;;;;;;;;;;;;;;;16.71;61.72;94234.00;5112717;28;1069;-70
2022/12/10 11:33:11;;;;;;;;;;;;;;;16.66;62.01;94236.53;5112742;28;1073;-71
2022/12/10 11:35:37;;;;;;;;;;;;;;;16.63;61.26;94246.94;5112827;28;929;-71
2022/12/10 11:38:03;;;;;;;;;;;;;;;16.67;61.07;94238.16;5116706;28;1231;-71
2022/12/10 11:40:48;;;;;;;;;;;;;;;16.69;61.02;94240.66;5116627;28;1987;-71
2022/12/10 11:43:17;;;;;;;;;;;;;;;16.67;60.84;94240.06;5116960;28;973;-70
2022/12/10 11:46:02;;;;;;;;;;;;;;;16.59;60.98;94233.88;5116968;28;1036;-70
2022/12/10 11:48:28;;;;;;;;;;;;;;;16.56;61.60;94230.78;5116900;28;1024;-70
2022/12/10 11:51:01;;;;;;;;;;;;;;;16.56;61.36;94228.09;5116765;28;1041;-70
2022/12/10 11:53:51;;;;;;;;;;;;;;;16.53;61.56;94232.06;5116608;28;1125;-70
2022/12/10 11:56:20;;;;;;;;;;;;;;;16.50;61.74;94243.28;5116898;28;1020;-70
2022/12/10 11:59:04;;;;;;;;;;;;;;;16.49;61.91;94230.03;5098624;28;1029;-70
2022/12/10 12:01:33;;;;;;;;;;;;;;;16.49;62.41;94221.94;5116547;28;1979;-70
2022/12/10 12:04:10;;;;;;;;;;;;;;;16.46;62.56;94208.88;5116495;28;1245;-70
2022/12/10 12:06:52;;;;;;;;;;;;;;;16.44;62.50;94211.81;5098318;28;985;-70
2022/12/10 12:09:29;;;;;;;;;;;;;;;16.40;63.08;94206.00;5116574;28;1025;-70
2022/12/10 12:12:03;;;;;;;;;;;;;;;16.42;63.14;94202.28;5116426;28;1112;-70
2022/12/10 12:14:35;;;;;;;;;;;;;;;16.47;63.43;94199.75;5116293;28;1028;-70
2022/12/10 12:17:01;;;;;;;;;;;;;;;16.44;63.03;94184.00;5116299;28;1056;-70
2022/12/10 12:19:53;;;;;;;;;;;;;;;16.48;63.07;94167.16;5116405;28;1044;-70
2022/12/10 12:22:19;;;;;;;;;;;;;;;16.49;62.95;94179.59;5111624;28;1261;-70
2022/12/10 12:24:47;;;;;;;;;;;;;;;16.49;63.14;94176.91;5116001;28;918;-70
2022/12/10 12:27:16;;;;;;;;;;;;;;;16.41;64.38;94179.88;5116061;28;1091;-70
2022/12/10 12:29:47;;;;;;;;;;;;;;;16.38;64.55;94169.53;5116152;28;1028;-70
2022/12/10 12:32:39;;;;;;;;;;;;;;;16.33;65.33;94150.47;5115987;28;1053;-70
2022/12/10 12:35:35;;;;;;;;;;;;;;;16.24;65.50;94149.09;5077307;28;1245;-70
2022/12/10 12:38:06;;;;;;;;;;;;;;;16.18;66.55;94140.88;5008141;28;1230;-71
2022/12/10 12:40:34;;;;;;;;;;;;;;;16.16;66.06;94134.88;4996851;28;1997;-70
2022/12/10 12:43:04;;;;;;;;;;;;;;;16.16;65.52;94121.38;5066054;28;1026;-70
2022/12/10 12:45:48;;;;;;;;;;;;;;;16.15;66.21;94127.00;5075130;28;1071;-70
2022/12/10 12:48:33;;;;;;;;;;;;;;;16.15;65.92;94129.69;5074766;28;1038;-70
2022/12/10 12:51:12;;;;;;;;;;;;;;;16.11;66.75;94125.78;5074023;28;980;-70
2022/12/10 12:53:38;;;;;;;;;;;;;;;16.06;66.46;94115.66;5073691;28;1096;-70
2022/12/10 12:56:22;;;;;;;;;;;;;;;16.08;66.88;94121.66;5074913;28;993;-70
2022/12/10 12:59:07;;;;;;;;;;;;;;;16.04;66.55;94127.72;5074729;28;1061;-70
2022/12/10 13:01:47;;;;;;;;;;;;;;;16.04;66.58;94122.31;5074825;28;1910;-70
2022/12/10 13:04:13;;;;;;;;;;;;;;;16.06;65.92;94128.31;5074735;28;976;-70
2022/12/10 13:06:44;;;;;;;;;;;;;;;16.13;65.42;94119.13;5074661;28;1095;-70
2022/12/10 13:09:13;;;;;;;;;;;;;;;16.20;64.99;94119.91;5074595;28;954;-71
2022/12/10 13:11:40;;;;;;;;;;;;;;;16.28;64.27;94123.38;5074487;28;1049;-70
2022/12/10 13:14:07;;;;;;;;;;;;;;;16.24;63.99;94109.50;5074505;28;1104;-70
2022/12/10 13:16:45;;;;;;;;;;;;;;;16.24;64.20;94109.50;5074542;28;1076;-71
2022/12/10 13:19:20;;;;;;;;;;;;;;;16.26;64.05;94104.69;5074527;28;957;-70
2022/12/10 13:22:01;;;;;;;;;;;;;;;16.24;63.85;94092.47;5074111;28;1971;-70